Time;durP1;ratioP1;P1;durP2;ratioP2;P2;SDS_P1;SDS_P2;PMS_P1;PMS_P2;Temp;Humidity;BMP_temperature;BMP_pressure;BME280_temperature;BME280_humidity;BME280_pressure;Samples;Min_cycle;Max_cycle;Signal;HPM_P1;HPM_P2
2023/05/22 00:02:09;;;;;;;23.27;22.07;;;17.70;1.00;;;;;;4875897;29;20463;-83
2023/05/22 00:04:39;;;;;;;24.77;23.07;;;17.60;1.00;;;;;;4871336;29;20460;-84
2023/05/22 00:07:07;;;;;;;25.53;23.70;;;17.60;1.00;;;;;;4868349;29;20644;-84
2023/05/22 00:09:35;;;;;;;23.70;22.40;;;17.60;1.00;;;;;;4873143;29;20488;-83
2023/05/22 00:12:04;;;;;;;23.83;22.53;;;17.60;1.00;;;;;;4871298;29;21210;-81
2023/05/22 00:14:32;;;;;;;25.47;23.97;;;17.60;1.00;;;;;;4873371;29;20844;-82
2023/05/22 00:17:00;;;;;;;24.50;22.97;;;17.50;1.00;;;;;;4874646;29;20490;-82
2023/05/22 00:19:29;;;;;;;24.50;23.10;;;17.50;1.00;;;;;;4868619;29;20498;-80
2023/05/22 00:21:59;;;;;;;24.97;23.27;;;17.50;1.00;;;;;;4872004;29;20537;-82
2023/05/22 00:24:27;;;;;;;26.27;24.50;;;17.50;37.90;;;;;;4875629;29;20495;-82
2023/05/22 00:26:55;;;;;;;25.47;23.67;;;17.40;1.00;;;;;;4877054;29;20542;-83
2023/05/22 00:29:23;;;;;;;24.63;23.13;;;17.40;99.90;;;;;;4873245;29;20498;-82
2023/05/22 00:31:51;;;;;;;24.40;23.00;;;17.40;80.70;;;;;;4878894;29;20692;-82
2023/05/22 00:34:19;;;;;;;25.00;23.40;;;17.40;99.90;;;;;;4880242;29;20997;-81
2023/05/22 00:36:48;;;;;;;24.80;23.40;;;17.30;99.90;;;;;;4875447;29;20575;-83
2023/05/22 00:39:17;;;;;;;25.23;23.73;;;17.40;99.90;;;;;;4868361;29;20511;-82
2023/05/22 00:41:46;;;;;;;25.17;23.63;;;17.30;99.90;;;;;;4868546;29;20476;-83
2023/05/22 00:44:14;;;;;;;24.83;23.33;;;17.30;99.90;;;;;;4878755;29;20684;-82
2023/05/22 00:46:42;;;;;;;25.13;23.57;;;17.30;99.90;;;;;;4875087;29;20459;-83
2023/05/22 00:49:10;;;;;;;25.07;23.50;;;17.40;99.90;;;;;;4875042;29;20488;-83
2023/05/22 00:51:39;;;;;;;25.80;24.07;;;17.40;65.00;;;;;;4878552;29;20455;-84
2023/05/22 00:54:07;;;;;;;26.57;24.87;;;17.30;96.60;;;;;;4875757;29;20857;-83
2023/05/22 00:56:37;;;;;;;25.43;23.87;;;17.20;99.90;;;;;;4876489;29;20979;-83
2023/05/22 00:59:05;;;;;;;25.47;23.80;;;17.20;99.90;;;;;;4854630;29;20570;-84
2023/05/22 01:01:36;;;;;;;25.07;23.30;;;17.20;99.90;;;;;;4855145;29;20986;-84
2023/05/22 01:04:06;;;;;;;24.80;23.17;;;17.20;99.90;;;;;;4876694;29;20940;-82
2023/05/22 01:06:35;;;;;;;23.17;21.87;;;17.10;99.90;;;;;;4873372;29;20463;-85
2023/05/22 01:09:04;;;;;;;24.07;22.67;;;17.10;99.90;;;;;;4872633;29;20632;-84
2023/05/22 01:11:41;;;;;;;23.77;22.37;;;17.10;99.90;;;;;;4872236;29;20483;-84
2023/05/22 01:14:18;;;;;;;25.03;23.43;;;17.10;99.90;;;;;;4878294;29;20452;-84
2023/05/22 01:16:53;;;;;;;24.07;22.47;;;17.00;99.90;;;;;;4879330;29;20468;-84
2023/05/22 01:19:41;;;;;;;23.80;22.33;;;17.00;99.90;;;;;;4875790;29;20489;-84
2023/05/22 01:22:23;;;;;;;23.40;22.00;;;17.00;99.90;;;;;;4872399;29;20558;-82
2023/05/22 01:25:19;;;;;;;23.30;21.80;;;17.00;99.90;;;;;;4876250;29;20462;-85
2023/05/22 01:28:17;;;;;;;24.47;22.70;;;16.90;99.90;;;;;;4873204;29;20968;-85
2023/05/22 01:30:54;;;;;;;23.20;21.93;;;16.90;99.90;;;;;;4877058;29;20466;-83
2023/05/22 01:33:25;;;;;;;24.67;23.10;;;16.90;1.00;;;;;;4867225;29;20470;-84
2023/05/22 01:35:56;;;;;;;24.10;22.50;;;16.90;99.90;;;;;;4878331;29;20818;-84
2023/05/22 01:38:31;;;;;;;24.83;23.17;;;16.90;99.90;;;;;;4861294;29;20494;-84
2023/05/22 01:41:00;;;;;;;23.13;21.63;;;16.90;99.90;;;;;;4874730;29;20473;-84
2023/05/22 01:43:29;;;;;;;23.63;21.80;;;16.90;99.90;;;;;;4872556;29;20471;-84
2023/05/22 01:46:00;;;;;;;23.73;22.23;;;16.90;99.90;;;;;;4865927;29;20562;-83
2023/05/22 01:48:28;;;;;;;25.53;23.73;;;16.80;99.90;;;;;;4871721;29;20487;-83
2023/05/22 01:51:02;;;;;;;24.97;23.23;;;16.80;99.90;;;;;;4849066;29;20872;-82
2023/05/22 01:53:41;;;;;;;24.23;22.80;;;16.80;99.90;;;;;;4865684;29;21069;-84
2023/05/22 01:56:14;;;;;;;23.90;22.30;;;16.80;99.90;;;;;;4874963;29;20465;-83
2023/05/22 01:58:49;;;;;;;24.50;22.67;;;16.80;99.90;;;;;;4873731;29;20494;-82
2023/05/22 02:01:20;;;;;;;24.87;23.17;;;16.70;99.90;;;;;;4869618;29;20981;-83
2023/05/22 02:03:55;;;;;;;24.57;23.07;;;16.80;99.90;;;;;;4865992;29;20478;-83
2023/05/22 02:06:28;;;;;;;24.23;22.83;;;16.70;99.90;;;;;;4872325;29;20610;-83
2023/05/22 02:08:57;;;;;;;24.57;23.07;;;16.60;1.00;;;;;;4876150;29;20485;-83
2023/05/22 02:11:27;;;;;;;23.43;22.03;;;16.70;99.90;;;;;;4889791;29;21022;-83
2023/05/22 02:13:56;;;;;;;42.33;36.03;;;16.70;99.90;;;;;;4877270;29;20457;-83
2023/05/22 02:16:29;;;;;;;61.27;42.77;;;16.70;99.90;;;;;;4878859;29;21145;-82
2023/05/22 02:19:04;;;;;;;35.37;31.67;;;16.60;99.90;;;;;;4873953;29;20490;-83
2023/05/22 02:24:18;;;;;;;23.97;22.47;;;16.60;1.00;;;;;;4875595;29;20477;-82
2023/05/22 02:26:54;;;;;;;24.50;22.97;;;16.60;1.00;;;;;;4876541;29;20466;-83
2023/05/22 02:29:33;;;;;;;23.57;22.07;;;16.60;1.00;;;;;;4875854;29;20489;-84
2023/05/22 02:32:03;;;;;;;24.63;22.83;;;16.60;1.00;;;;;;4875881;29;20458;-82
2023/05/22 02:34:37;;;;;;;23.23;21.63;;;16.60;1.00;;;;;;4877102;29;20553;-84
2023/05/22 02:37:08;;;;;;;24.73;23.03;;;16.70;1.00;;;;;;4876715;29;20471;-83
2023/05/22 02:39:36;;;;;;;23.83;22.43;;;16.70;1.00;;;;;;4877884;29;20502;-84
2023/05/22 02:42:05;;;;;;;23.83;22.40;;;16.70;1.00;;;;;;4880695;29;20466;-84
2023/05/22 02:44:34;;;;;;;23.20;21.70;;;16.70;1.00;;;;;;4881029;29;21083;-84
2023/05/22 02:47:03;;;;;;;24.47;22.97;;;16.70;1.00;;;;;;4877365;29;20462;-82
2023/05/22 02:49:31;;;;;;;23.97;21.90;;;16.70;1.00;;;;;;4879730;29;20514;-84
2023/05/22 02:52:00;;;;;;;22.10;20.80;;;16.70;90.70;;;;;;4881335;29;20849;-84
2023/05/22 02:54:28;;;;;;;22.97;21.57;;;16.80;28.60;;;;;;4877940;29;20466;-84
2023/05/22 02:56:56;;;;;;;23.30;21.90;;;16.70;21.10;;;;;;4882992;29;20468;-81
2023/05/22 02:59:24;;;;;;;24.13;22.73;;;16.80;1.00;;;;;;4880158;29;20902;-83
2023/05/22 03:01:53;;;;;;;24.73;23.23;;;16.80;1.00;;;;;;4878020;29;20455;-82
2023/05/22 03:04:22;;;;;;;23.37;22.17;;;16.80;1.00;;;;;;4876678;29;20473;-82
2023/05/22 03:06:51;;;;;;;25.17;23.63;;;16.80;1.00;;;;;;4869131;29;21859;-82
2023/05/22 03:09:20;;;;;;;23.70;22.40;;;16.70;41.40;;;;;;4879686;29;20574;-83
2023/05/22 03:11:48;;;;;;;24.40;22.90;;;16.80;1.00;;;;;;4878718;29;20494;-83
2023/05/22 03:14:16;;;;;;;24.33;22.93;;;16.80;1.00;;;;;;4879874;29;20476;-83
2023/05/22 03:16:44;;;;;;;26.57;24.87;;;16.70;1.00;;;;;;4874250;29;20463;-82
2023/05/22 03:19:15;;;;;;;25.33;23.83;;;16.70;3.30;;;;;;4865371;29;21101;-83
2023/05/22 03:21:44;;;;;;;24.70;23.00;;;16.60;28.40;;;;;;4879975;29;20462;-82
2023/05/22 03:24:12;;;;;;;24.93;23.33;;;16.60;28.40;;;;;;4880059;29;20501;-83
2023/05/22 03:26:41;;;;;;;25.23;23.63;;;16.60;28.80;;;;;;4878867;29;20485;-82
2023/05/22 03:29:09;;;;;;;25.07;23.67;;;16.60;99.90;;;;;;4877381;29;20482;-83
2023/05/22 03:31:37;;;;;;;24.40;23.00;;;16.60;19.50;;;;;;4876035;29;21075;-81
2023/05/22 03:34:06;;;;;;;25.27;23.80;;;16.60;1.00;;;;;;4873109;29;20469;-83
2023/05/22 03:36:34;;;;;;;24.57;23.07;;;16.70;1.00;;;;;;4875251;29;20470;-82
2023/05/22 03:39:04;;;;;;;25.43;23.77;;;16.70;1.00;;;;;;4858961;29;20506;-81
2023/05/22 03:41:32;;;;;;;24.70;23.33;;;16.70;1.00;;;;;;4877963;29;20466;-83
2023/05/22 03:44:01;;;;;;;24.20;22.90;;;16.60;1.00;;;;;;4859318;29;20477;-82
2023/05/22 03:46:30;;;;;;;25.47;23.67;;;16.60;99.90;;;;;;4871105;29;20458;-82
2023/05/22 03:48:58;;;;;;;25.50;23.90;;;16.60;99.90;;;;;;4988122;23;21532;-82
2023/05/22 03:51:26;;;;;;;24.93;23.53;;;16.60;20.70;;;;;;4921516;29;21731;-83
2023/05/22 03:53:55;;;;;;;24.90;23.40;;;16.70;32.90;;;;;;4927860;29;20964;-82
2023/05/22 03:56:24;;;;;;;24.80;23.20;;;16.70;1.30;;;;;;4925147;29;20456;-82
2023/05/22 03:58:52;;;;;;;26.00;24.40;;;16.70;1.00;;;;;;4926902;29;20872;-82
2023/05/22 04:01:20;;;;;;;25.57;24.07;;;16.70;1.00;;;;;;4934329;28;20491;-81
2023/05/22 04:03:49;;;;;;;24.27;22.90;;;16.70;1.00;;;;;;4927256;29;20444;-82
2023/05/22 04:06:20;;;;;;;25.57;23.97;;;16.70;1.00;;;;;;4926797;29;20459;-82
2023/05/22 04:08:48;;;;;;;26.27;24.67;;;16.70;1.00;;;;;;4925361;29;20480;-81
2023/05/22 04:11:17;;;;;;;25.53;23.90;;;16.60;1.00;;;;;;4928791;29;20467;-82
2023/05/22 04:13:49;;;;;;;25.73;24.03;;;16.60;1.00;;;;;;4919414;29;20475;-83
2023/05/22 04:16:17;;;;;;;25.93;24.13;;;16.50;99.90;;;;;;4925688;29;20452;-83
2023/05/22 04:18:45;;;;;;;27.17;25.37;;;16.50;99.90;;;;;;4916110;29;20474;-81
2023/05/22 04:21:14;;;;;;;26.77;25.07;;;16.40;99.90;;;;;;4917662;29;20460;-81
2023/05/22 04:23:43;;;;;;;25.47;24.00;;;16.50;99.90;;;;;;4929738;29;20496;-83
2023/05/22 04:26:12;;;;;;;27.47;25.67;;;16.40;1.00;;;;;;4928867;29;20477;-83
2023/05/22 04:28:44;;;;;;;26.30;24.80;;;16.40;1.00;;;;;;4932118;29;20568;-79
2023/05/22 04:31:14;;;;;;;26.70;25.13;;;16.40;1.00;;;;;;4921531;29;20462;-84
2023/05/22 04:33:43;;;;;;;25.93;24.33;;;16.40;13.60;;;;;;4926959;29;20475;-82
2023/05/22 04:36:11;;;;;;;26.77;25.17;;;16.50;1.00;;;;;;4932550;29;20531;-81
2023/05/22 04:38:40;;;;;;;26.50;24.90;;;16.50;99.90;;;;;;4930343;29;20476;-81
2023/05/22 04:41:09;;;;;;;27.47;25.43;;;16.40;1.00;;;;;;4927098;29;20531;-82
2023/05/22 04:43:37;;;;;;;28.17;26.33;;;16.40;1.00;;;;;;4929744;29;20486;-81
2023/05/22 04:46:07;;;;;;;27.37;25.70;;;16.40;1.00;;;;;;4925872;29;20479;-81
2023/05/22 04:48:36;;;;;;;26.53;24.93;;;16.40;1.00;;;;;;4925917;29;20503;-82
2023/05/22 04:51:05;;;;;;;27.50;25.70;;;16.50;1.00;;;;;;4924058;29;20452;-82
2023/05/22 04:53:33;;;;;;;28.03;26.10;;;16.60;1.00;;;;;;4929039;29;20830;-81
2023/05/22 04:56:04;;;;;;;27.37;25.47;;;16.70;99.90;;;;;;4917999;29;20491;-79
2023/05/22 04:58:32;;;;;;;27.50;25.80;;;16.70;99.90;;;;;;4920467;29;22973;-80
2023/05/22 05:01:02;;;;;;;27.63;25.80;;;16.80;1.00;;;;;;4921752;29;21513;-80
2023/05/22 05:03:30;;;;;;;27.00;25.40;;;16.80;1.00;;;;;;4932926;29;20659;-80
2023/05/22 05:06:00;;;;;;;25.80;24.30;;;16.90;1.00;;;;;;4928597;29;20755;-80
2023/05/22 05:08:28;;;;;;;27.07;25.47;;;16.90;99.90;;;;;;4932820;29;20480;-81
2023/05/22 05:10:56;;;;;;;27.93;26.23;;;16.90;99.90;;;;;;4931728;29;20478;-81
2023/05/22 05:13:24;;;;;;;27.93;26.00;;;16.90;1.00;;;;;;4931393;29;20468;-81
2023/05/22 05:15:54;;;;;;;27.73;26.03;;;16.90;33.80;;;;;;4924001;29;20500;-81
2023/05/22 05:18:22;;;;;;;27.03;25.50;;;17.00;1.00;;;;;;4915744;29;20543;-80
2023/05/22 05:20:51;;;;;;;29.27;27.47;;;17.10;1.00;;;;;;4919232;29;20789;-81
2023/05/22 05:23:21;;;;;;;28.17;26.37;;;17.10;1.00;;;;;;4925209;29;20458;-82
2023/05/22 05:25:49;;;;;;;28.40;26.60;;;17.10;1.00;;;;;;4943121;28;20561;-82
2023/05/22 05:28:17;;;;;;;27.90;26.20;;;17.20;1.00;;;;;;4927881;29;20481;-81
2023/05/22 05:30:46;;;;;;;28.33;26.53;;;17.20;99.90;;;;;;4929167;29;21896;-82
2023/05/22 05:33:15;;;;;;;28.70;26.70;;;17.20;99.90;;;;;;4932276;29;20441;-81
2023/05/22 05:35:43;;;;;;;28.80;27.00;;;17.30;1.00;;;;;;4932092;29;20456;-82
2023/05/22 05:38:11;;;;;;;29.73;27.73;;;17.40;1.00;;;;;;4932485;29;20571;-81
2023/05/22 05:40:41;;;;;;;28.57;26.80;;;17.40;1.00;;;;;;4925490;29;20481;-81
2023/05/22 05:43:09;;;;;;;30.60;28.50;;;17.40;99.90;;;;;;4934129;29;20463;-82
2023/05/22 05:45:37;;;;;;;30.00;28.17;;;17.40;1.00;;;;;;4932225;29;21054;-82
2023/05/22 05:48:06;;;;;;;29.60;27.57;;;17.50;99.90;;;;;;4932097;29;20580;-80
2023/05/22 05:50:34;;;;;;;29.67;27.67;;;17.50;84.10;;;;;;4931668;29;20997;-82
2023/05/22 05:53:03;;;;;;;29.57;27.63;;;17.50;99.90;;;;;;4932703;29;20480;-83
2023/05/22 05:55:31;;;;;;;30.87;28.90;;;17.60;99.90;;;;;;4932269;29;20472;-82
2023/05/22 05:58:03;;;;;;;28.93;27.20;;;17.70;99.90;;;;;;4929650;29;20480;-82
2023/05/22 06:00:31;;;;;;;29.60;27.70;;;17.80;99.90;;;;;;4931390;29;20477;-82
2023/05/22 06:02:59;;;;;;;30.03;28.07;;;17.90;94.60;;;;;;4932726;29;20461;-81
2023/05/22 06:05:29;;;;;;;29.23;27.20;;;17.90;74.90;;;;;;4925210;29;20456;-82
2023/05/22 06:07:58;;;;;;;30.10;27.93;;;18.00;99.90;;;;;;4930754;29;21083;-82
2023/05/22 06:10:26;;;;;;;30.70;28.50;;;18.10;29.20;;;;;;4930730;29;20449;-82
2023/05/22 06:12:54;;;;;;;29.70;27.80;;;18.10;49.00;;;;;;4929722;29;20493;-82
2023/05/22 06:15:24;;;;;;;29.43;27.40;;;18.20;83.30;;;;;;4936159;29;20209;-82
2023/05/22 06:17:52;;;;;;;28.90;27.10;;;18.30;1.00;;;;;;4939082;29;20472;-82
2023/05/22 06:20:21;;;;;;;28.93;26.80;;;18.30;1.00;;;;;;4936984;29;20492;-82
2023/05/22 06:22:49;;;;;;;28.87;26.83;;;18.40;99.90;;;;;;4933940;29;20836;-81
2023/05/22 06:25:18;;;;;;;27.73;26.00;;;18.50;99.90;;;;;;4937975;29;20451;-81
2023/05/22 06:27:46;;;;;;;29.00;27.10;;;18.50;1.00;;;;;;4933088;29;21025;-81
2023/05/22 06:30:15;;;;;;;27.60;26.00;;;18.50;1.00;;;;;;4931559;29;20445;-82
2023/05/22 06:33:05;;;;;;;28.63;26.47;;;18.50;62.90;;;;;;4932901;29;20841;-82
2023/05/22 06:35:34;;;;;;;28.53;26.57;;;18.60;1.00;;;;;;4934125;29;20488;-81
2023/05/22 06:38:03;;;;;;;28.90;26.80;;;18.70;1.00;;;;;;4935508;29;20480;-83
2023/05/22 06:40:32;;;;;;;29.43;27.20;;;18.80;1.00;;;;;;4935910;29;20484;-82
2023/05/22 06:43:01;;;;;;;29.50;27.40;;;18.80;1.00;;;;;;4936223;29;20459;-82
2023/05/22 06:45:29;;;;;;;28.87;27.17;;;18.90;1.00;;;;;;4934423;29;20995;-81
2023/05/22 06:47:58;;;;;;;28.73;26.40;;;18.90;99.90;;;;;;4936082;29;20480;-82
2023/05/22 06:50:29;;;;;;;28.70;26.70;;;19.00;99.90;;;;;;4936294;29;20528;-82
2023/05/22 06:52:58;;;;;;;31.17;28.67;;;19.00;99.90;;;;;;4936637;29;20445;-81
2023/05/22 06:55:27;;;;;;;28.80;26.80;;;19.00;99.90;;;;;;4937341;29;20479;-82
2023/05/22 06:57:55;;;;;;;29.23;26.73;;;18.90;99.90;;;;;;4937556;29;20484;-81
2023/05/22 07:00:24;;;;;;;29.10;27.00;;;18.90;99.90;;;;;;4935093;29;20495;-81
2023/05/22 07:02:52;;;;;;;29.03;27.13;;;18.90;99.90;;;;;;4934735;29;20461;-82
2023/05/22 07:05:20;;;;;;;30.03;27.83;;;18.90;99.90;;;;;;4934956;29;20456;-82
2023/05/22 07:07:50;;;;;;;29.13;27.00;;;18.90;99.90;;;;;;4936015;29;20481;-80
2023/05/22 07:10:19;;;;;;;28.80;26.90;;;18.90;99.90;;;;;;4936844;29;20472;-81
2023/05/22 07:12:48;;;;;;;27.90;26.27;;;18.90;99.90;;;;;;4935498;29;20979;-81
2023/05/22 07:15:16;;;;;;;28.70;26.70;;;18.90;1.00;;;;;;4933536;29;20875;-82
2023/05/22 07:17:45;;;;;;;27.37;25.80;;;19.00;1.00;;;;;;4921994;29;20579;-82
2023/05/22 07:20:15;;;;;;;30.63;28.50;;;19.00;1.00;;;;;;4932523;29;20547;-81
2023/05/22 07:22:45;;;;;;;30.00;28.10;;;18.90;1.00;;;;;;4936535;29;21112;-81
2023/05/22 07:25:16;;;;;;;28.60;26.70;;;18.90;1.00;;;;;;4935259;29;20475;-81
2023/05/22 07:27:45;;;;;;;28.57;26.73;;;18.80;1.00;;;;;;4932487;29;20480;-81
2023/05/22 07:30:14;;;;;;;29.73;27.73;;;18.80;1.00;;;;;;4929706;29;20453;-82
2023/05/22 07:32:42;;;;;;;29.57;27.67;;;18.80;1.00;;;;;;4929737;29;21053;-82
2023/05/22 07:35:10;;;;;;;28.90;27.00;;;18.80;40.60;;;;;;4935034;29;20465;-81
2023/05/22 07:37:39;;;;;;;29.63;27.70;;;18.80;99.90;;;;;;4935557;29;21022;-81
2023/05/22 07:40:08;;;;;;;29.03;26.93;;;18.90;99.90;;;;;;4932623;29;20713;-81
2023/05/22 07:42:38;;;;;;;30.90;29.00;;;18.90;36.90;;;;;;4926266;29;20498;-82
2023/05/22 07:45:08;;;;;;;31.67;29.43;;;18.90;99.90;;;;;;4946767;28;20461;-83
2023/05/22 07:47:36;;;;;;;32.07;29.93;;;18.90;99.20;;;;;;4932250;29;20499;-82
2023/05/22 07:50:06;;;;;;;31.50;29.40;;;18.90;1.00;;;;;;4931620;29;20461;-82
2023/05/22 07:52:34;;;;;;;30.50;28.47;;;18.90;99.90;;;;;;4930632;29;20461;-81
2023/05/22 07:55:02;;;;;;;31.77;29.70;;;18.90;1.00;;;;;;4931328;29;20461;-82
2023/05/22 07:57:31;;;;;;;31.13;29.27;;;19.00;99.90;;;;;;4930539;29;21006;-81
2023/05/22 08:00:05;;;;;;;31.60;29.67;;;19.00;1.00;;;;;;4925888;29;21131;-81
2023/05/22 08:02:33;;;;;;;30.93;28.93;;;19.00;1.00;;;;;;4923597;29;20855;-82
2023/05/22 08:05:03;;;;;;;31.10;29.20;;;19.10;99.90;;;;;;4927511;29;20457;-81
2023/05/22 08:07:32;;;;;;;32.77;30.77;;;19.10;99.90;;;;;;4933813;29;20461;-81
2023/05/22 08:10:04;;;;;;;32.77;30.67;;;19.20;99.90;;;;;;4935234;29;20457;-82
2023/05/22 08:12:33;;;;;;;33.20;30.90;;;19.30;99.90;;;;;;4934882;29;20520;-82
2023/05/22 08:15:04;;;;;;;32.40;30.30;;;19.30;1.00;;;;;;4936001;29;20820;-81
2023/05/22 08:17:32;;;;;;;31.20;29.20;;;19.40;99.90;;;;;;4926878;29;20456;-83
2023/05/22 08:20:01;;;;;;;31.20;29.20;;;19.40;99.90;;;;;;4929606;29;20556;-81
2023/05/22 08:22:30;;;;;;;34.53;32.13;;;19.50;99.90;;;;;;4932426;29;20492;-82
2023/05/22 08:24:58;;;;;;;31.97;29.87;;;19.50;99.90;;;;;;4931797;29;20552;-81
2023/05/22 08:27:26;;;;;;;31.73;29.53;;;19.60;1.00;;;;;;4929838;29;20497;-81
2023/05/22 08:29:55;;;;;;;32.40;30.20;;;19.70;1.00;;;;;;4931139;29;20475;-82
2023/05/22 08:32:24;;;;;;;34.17;31.73;;;19.70;1.00;;;;;;4932561;29;20831;-82
2023/05/22 08:34:55;;;;;;;32.67;30.37;;;19.80;1.00;;;;;;4933333;29;20463;-81
2023/05/22 08:37:23;;;;;;;31.47;29.40;;;19.80;1.00;;;;;;4924759;29;20461;-82
2023/05/22 08:39:52;;;;;;;33.90;31.67;;;19.90;1.00;;;;;;4923447;29;20473;-81
2023/05/22 08:42:21;;;;;;;33.00;30.90;;;19.90;1.00;;;;;;4923360;29;20500;-82
2023/05/22 08:44:49;;;;;;;31.33;29.43;;;20.00;99.90;;;;;;4923837;29;20850;-81
2023/05/22 08:47:19;;;;;;;32.53;30.53;;;20.00;99.90;;;;;;4919028;29;20491;-82
2023/05/22 08:49:51;;;;;;;32.37;30.27;;;20.10;1.00;;;;;;4928855;29;20629;-82
2023/05/22 08:52:23;;;;;;;32.47;30.33;;;20.10;99.90;;;;;;4930021;29;20451;-82
2023/05/22 08:54:54;;;;;;;32.60;30.47;;;20.20;1.00;;;;;;4925683;29;20687;-82
2023/05/22 08:57:23;;;;;;;32.17;29.97;;;20.30;1.00;;;;;;4933583;29;20467;-80
2023/05/22 08:59:51;;;;;;;31.17;29.30;;;20.30;1.00;;;;;;4937111;28;20496;-82
2023/05/22 09:02:20;;;;;;;31.83;30.00;;;20.40;1.00;;;;;;4927822;29;20489;-81
2023/05/22 09:04:51;;;;;;;31.73;29.77;;;20.40;99.90;;;;;;4928807;29;20469;-79
2023/05/22 09:07:20;;;;;;;32.27;29.73;;;20.50;1.00;;;;;;4925177;29;21054;-80
2023/05/22 09:09:50;;;;;;;31.93;30.13;;;20.50;99.90;;;;;;4920121;29;20535;-79
2023/05/22 09:12:18;;;;;;;31.50;29.30;;;20.70;1.00;;;;;;4929728;29;20860;-79
2023/05/22 09:14:47;;;;;;;29.13;27.43;;;20.80;99.90;;;;;;4923004;29;20461;-81
2023/05/22 09:17:15;;;;;;;30.33;28.43;;;20.80;99.90;;;;;;4928489;29;20543;-81
2023/05/22 09:19:45;;;;;;;30.03;28.17;;;20.80;99.90;;;;;;4926636;29;20512;-81
2023/05/22 09:22:15;;;;;;;30.63;28.60;;;20.90;99.90;;;;;;4928019;29;20480;-79
2023/05/22 09:24:46;;;;;;;30.03;28.03;;;20.90;99.90;;;;;;4927297;29;20468;-79
2023/05/22 09:27:14;;;;;;;29.73;27.93;;;21.00;99.90;;;;;;4944095;28;20464;-79
2023/05/22 09:29:49;;;;;;;29.63;27.60;;;21.00;99.90;;;;;;4930186;29;20472;-80
2023/05/22 09:32:18;;;;;;;30.93;28.87;;;21.00;99.90;;;;;;4929788;29;20456;-79
2023/05/22 09:34:47;;;;;;;28.70;27.00;;;21.00;99.90;;;;;;4927931;29;20522;-78
2023/05/22 09:37:18;;;;;;;29.90;28.10;;;21.00;99.90;;;;;;4927259;29;20494;-81
2023/05/22 09:39:53;;;;;;;30.10;28.30;;;21.00;99.90;;;;;;4921065;29;21008;-76
2023/05/22 09:42:24;;;;;;;29.40;27.50;;;21.10;99.90;;;;;;4927698;29;20480;-79
2023/05/22 09:44:52;;;;;;;29.63;27.60;;;21.10;99.90;;;;;;4928810;29;20986;-81
2023/05/22 09:47:21;;;;;;;28.87;27.17;;;21.20;99.90;;;;;;4928145;29;20457;-79
2023/05/22 09:49:49;;;;;;;30.27;28.40;;;21.30;99.90;;;;;;4926339;29;21002;-78
2023/05/22 09:52:20;;;;;;;29.93;28.03;;;21.30;99.90;;;;;;4927852;29;20465;-79
2023/05/22 09:54:54;;;;;;;28.77;26.70;;;21.40;99.90;;;;;;4928585;29;20467;-80
2023/05/22 09:57:25;;;;;;;30.97;28.97;;;21.40;99.90;;;;;;4927747;29;21140;-80
2023/05/22 09:59:57;;;;;;;29.57;27.83;;;21.50;99.90;;;;;;4927185;29;20462;-80
2023/05/22 10:02:26;;;;;;;28.87;27.27;;;21.60;99.90;;;;;;4928773;29;20513;-78
2023/05/22 10:04:55;;;;;;;30.13;28.20;;;21.60;63.50;;;;;;4925772;29;20495;-79
2023/05/22 10:07:27;;;;;;;28.57;26.77;;;21.70;99.90;;;;;;4927027;29;21000;-80
2023/05/22 10:10:02;;;;;;;29.40;27.70;;;21.70;99.90;;;;;;4928381;29;20467;-79
2023/05/22 10:12:33;;;;;;;29.37;27.77;;;21.70;23.50;;;;;;4928618;29;20459;-79
2023/05/22 10:15:02;;;;;;;28.43;26.73;;;21.80;69.50;;;;;;4927061;29;20532;-79
2023/05/22 10:17:31;;;;;;;29.13;27.23;;;21.80;65.90;;;;;;4928949;29;20463;-82
2023/05/22 10:19:59;;;;;;;30.27;28.47;;;21.90;61.70;;;;;;4927715;29;20972;-79
2023/05/22 10:22:30;;;;;;;28.93;27.07;;;21.90;48.40;;;;;;4928416;29;20476;-80
2023/05/22 10:24:59;;;;;;;29.73;27.83;;;22.00;47.80;;;;;;4928815;29;20460;-80
2023/05/22 10:27:28;;;;;;;30.10;28.20;;;22.00;7.90;;;;;;4929076;29;21088;-78
2023/05/22 10:30:03;;;;;;;31.37;29.27;;;22.10;1.00;;;;;;4927264;29;20479;-81
2023/05/22 10:32:38;;;;;;;27.20;25.63;;;22.10;1.00;;;;;;4926504;29;20494;-81
2023/05/22 10:35:16;;;;;;;28.50;26.47;;;22.10;1.00;;;;;;4928147;29;20466;-79
2023/05/22 10:37:51;;;;;;;28.40;26.60;;;22.20;1.00;;;;;;4929162;29;20475;-79
2023/05/22 10:40:27;;;;;;;26.90;25.50;;;22.30;1.00;;;;;;4927652;29;20713;-79
2023/05/22 10:43:00;;;;;;;27.97;26.20;;;22.30;1.00;;;;;;4928228;29;20570;-80
2023/05/22 10:45:29;;;;;;;26.83;25.33;;;22.30;1.00;;;;;;4930058;29;20547;-80
2023/05/22 10:48:04;;;;;;;27.10;25.60;;;22.30;1.00;;;;;;4928089;29;20495;-79
2023/05/22 10:50:34;;;;;;;28.27;26.37;;;22.30;1.00;;;;;;4926679;29;20460;-82
2023/05/22 10:53:21;;;;;;;28.73;27.03;;;22.30;1.00;;;;;;4927649;29;20448;-76
2023/05/22 10:55:49;;;;;;;26.13;24.73;;;22.30;1.00;;;;;;4927303;29;20497;-78
2023/05/22 10:58:18;;;;;;;27.87;26.07;;;22.30;1.00;;;;;;4926664;29;20486;-81
2023/05/22 11:00:46;;;;;;;27.40;25.80;;;22.30;1.00;;;;;;4925103;29;20495;-80
2023/05/22 11:03:15;;;;;;;28.13;26.40;;;22.40;1.00;;;;;;4930427;29;20547;-79
2023/05/22 11:05:53;;;;;;;27.43;25.83;;;22.40;1.00;;;;;;4929646;29;20460;-79
2023/05/22 11:08:41;;;;;;;27.23;25.73;;;22.50;1.00;;;;;;4930015;29;20475;-80
2023/05/22 11:11:15;;;;;;;28.43;26.50;;;22.40;1.00;;;;;;4934593;29;20451;-79
2023/05/22 11:13:44;;;;;;;27.13;25.60;;;22.40;1.00;;;;;;4932382;29;21394;-80
2023/05/22 11:16:15;;;;;;;27.93;26.43;;;22.50;1.00;;;;;;4926921;29;20466;-80
2023/05/22 11:18:45;;;;;;;28.07;26.33;;;22.50;1.00;;;;;;4935015;29;20861;-82
2023/05/22 11:21:15;;;;;;;28.77;26.97;;;22.60;1.00;;;;;;4928257;29;20467;-80
2023/05/22 11:23:47;;;;;;;27.33;25.83;;;22.60;1.00;;;;;;4936597;29;20502;-84
2023/05/22 11:26:21;;;;;;;27.23;25.63;;;22.50;1.00;;;;;;4935701;29;20480;-81
2023/05/22 11:28:52;;;;;;;27.47;25.80;;;22.50;1.00;;;;;;4930070;29;20537;-81
2023/05/22 11:31:23;;;;;;;28.00;26.50;;;22.60;1.00;;;;;;4931680;29;20479;-82
2023/05/22 11:33:51;;;;;;;27.03;25.53;;;22.70;1.00;;;;;;4930745;29;20589;-80
2023/05/22 11:36:24;;;;;;;26.67;25.13;;;22.70;1.00;;;;;;4930621;29;20523;-84
2023/05/22 11:38:58;;;;;;;25.93;24.63;;;22.80;1.00;;;;;;4927659;29;20480;-80
2023/05/22 11:41:33;;;;;;;26.33;24.93;;;23.00;1.00;;;;;;4927257;29;20460;-84
2023/05/22 11:44:02;;;;;;;27.07;25.57;;;23.00;1.00;;;;;;4934339;29;20487;-80
2023/05/22 11:46:30;;;;;;;26.97;25.53;;;23.00;1.00;;;;;;4933842;29;20456;-82
2023/05/22 11:48:59;;;;;;;27.47;25.70;;;23.00;1.00;;;;;;4930960;29;20528;-81
2023/05/22 11:51:27;;;;;;;27.03;25.53;;;23.00;1.00;;;;;;4928425;29;20552;-82
2023/05/22 11:53:57;;;;;;;27.13;25.63;;;23.00;1.00;;;;;;4934198;29;20449;-82
2023/05/22 11:56:25;;;;;;;26.37;24.90;;;23.10;1.00;;;;;;4935047;29;20456;-83
2023/05/22 11:58:54;;;;;;;27.50;26.00;;;23.20;1.00;;;;;;4928894;29;20477;-82
2023/05/22 12:01:22;;;;;;;27.13;25.50;;;23.20;1.00;;;;;;4932665;29;20471;-81
2023/05/22 12:03:50;;;;;;;27.30;25.70;;;23.20;1.00;;;;;;4933241;29;20484;-82
2023/05/22 12:06:19;;;;;;;26.20;24.80;;;23.30;1.00;;;;;;4934086;29;20465;-79
2023/05/22 12:08:47;;;;;;;27.53;26.03;;;23.40;1.00;;;;;;4931513;29;20673;-80
2023/05/22 12:11:17;;;;;;;27.47;25.70;;;23.40;1.00;;;;;;4932907;29;20453;-82
2023/05/22 12:13:45;;;;;;;26.60;25.20;;;23.40;1.00;;;;;;4937542;29;20478;-84
2023/05/22 12:16:21;;;;;;;26.57;24.97;;;23.40;1.00;;;;;;4932914;28;20468;-82
2023/05/22 12:18:53;;;;;;;26.80;25.47;;;23.40;1.00;;;;;;4930821;29;21062;-83
2023/05/22 12:21:22;;;;;;;28.63;27.00;;;23.40;1.00;;;;;;4933957;29;20457;-79
2023/05/22 12:23:51;;;;;;;27.67;25.97;;;23.50;1.00;;;;;;4937820;29;20488;-83
2023/05/22 12:26:21;;;;;;;28.17;26.57;;;23.60;1.00;;;;;;4936566;29;20460;-82
2023/05/22 12:28:53;;;;;;;26.53;25.03;;;23.70;99.90;;;;;;4935467;29;20572;-83
2023/05/22 12:31:21;;;;;;;26.80;25.40;;;23.70;99.90;;;;;;4936403;29;20472;-82
2023/05/22 12:33:53;;;;;;;26.60;25.30;;;23.70;99.90;;;;;;4928733;29;20579;-82
2023/05/22 12:36:22;;;;;;;27.33;25.63;;;23.60;99.90;;;;;;4934697;29;20461;-81
2023/05/22 12:38:50;;;;;;;26.83;25.43;;;23.60;99.90;;;;;;4933496;29;20834;-84
2023/05/22 12:41:18;;;;;;;26.70;25.40;;;23.60;99.90;;;;;;4933613;29;20464;-84
2023/05/22 12:43:48;;;;;;;27.13;25.70;;;23.50;99.90;;;;;;4933859;29;20520;-82
2023/05/22 12:46:16;;;;;;;26.30;24.87;;;23.60;99.90;;;;;;4933646;29;21002;-80
2023/05/22 12:48:45;;;;;;;26.97;25.60;;;23.60;99.90;;;;;;4930995;29;20488;-81